Ellinwood, KS (67526)

9:23 AM CDT on July 27, 2016 (GMT -0500)
Ellinwood High School | | Change Station

Elev 1811 ft 38.36 °N, 98.58 °W | Updated 5 seconds ago

Mostly Cloudy
Mostly Cloudy
73.8 °F
Feels Like 71 °F
N
13.0
Wind Variable Wind from SSE
Gusts 15.0 mph

Today
High -- | Low -- °F
--% Chance of Precip.
Yesterday
High -- | Low -- °F
Precip. -- in
Pressure 29.94 in
Visibility 8.0 miles
Clouds Few 2400 ft
Scattered Clouds 8000 ft
Mostly Cloudy 10000 ft
Heat Index 71 °F
Dew Point 72 °F
Humidity 94%
Rainfall 0.00 in
Snow Depth Not available.
6:32 AM 8:48 PM
Last Quarter, 43% visible
METAR KGBD 271415Z AUTO 21014G26KT 8SM FEW024 SCT080 BKN100 23/19 A2994 RMK AO1
Pressure 29.94 in
Visibility 8.0 miles
Clouds Few 2400 ft
Scattered Clouds 8000 ft
Mostly Cloudy 10000 ft
Heat Index 71 °F
Dew Point 72 °F
Humidity 94%
Rainfall 0.00 in
Snow Depth Not available.
6:32 AM 8:48 PM
Last Quarter, 43% visible
METAR KGBD 271415Z AUTO 21014G26KT 8SM FEW024 SCT080 BKN100 23/19 A2994 RMK AO1

10-Day Weather Forecast

Almanac

Astronomy

Jul. 27, 2016 Rise Set
Actual Time
Civil Twilight
Nautical Twilight
Astronomical Twilight
Moon
Length of Visible Light
Length of Day
Tomorrow will be .
, % of the Moon is Illuminated

Today's Extremes

State Highs State Lows

Community

WunderPhotos

Upload Photos

1,927,847 photos uploaded!

WunderBlog® & News

Nearby

Air Quality

  Air Quality AQ Index Pollutant
Not available.

Snow Depth

Station Depth Elevation

Earthquake Activity

City Distance Mag. Time & Date
Minimum magnitude displayed is 2.5.

Coastal Water Temperatures

Place Temperature

Stations

Nearby Weather Stations

Station Location Temp. Windchill Dew Point Humidity Wind Precip. Elev Updated Type
                   

Watches & Warnings

There are currently no watches in effect.